Time;durP1;ratioP1;P1;durP2;ratioP2;P2;SDS_P1;SDS_P2;PMS_P1;PMS_P2;Temp;Humidity;BMP_temperature;BMP_pressure;BME280_temperature;BME280_humidity;BME280_pressure;Samples;Min_cycle;Max_cycle;Signal;HPM_P1;HPM_P2
2023/08/20 00:01:36;;;;;;;;;;;;;;;23.73;70.41;97254.06;621708;228;67300;-71
2023/08/20 00:04:03;;;;;;;;;;;;;;;23.73;70.30;97251.38;622209;227;67265;-71
2023/08/20 00:06:32;;;;;;;;;;;;;;;23.73;70.53;97246.02;621653;228;62419;-71
2023/08/20 00:09:00;;;;;;;;;;;;;;;23.74;71.70;97248.42;621938;228;67029;-71
2023/08/20 00:11:27;;;;;;;;;;;;;;;23.72;70.60;97252.47;621910;228;66625;-71
2023/08/20 00:13:55;;;;;;;;;;;;;;;23.73;71.30;97243.33;621714;228;62460;-71
2023/08/20 00:16:22;;;;;;;;;;;;;;;23.72;71.12;97241.73;622187;228;64816;-71
2023/08/20 00:18:50;;;;;;;;;;;;;;;23.72;70.44;97239.05;621692;228;66852;-71
2023/08/20 00:21:18;;;;;;;;;;;;;;;23.72;71.13;97247.91;621667;228;62342;-70
2023/08/20 00:23:45;;;;;;;;;;;;;;;23.72;71.03;97244.42;621707;228;64483;-71
2023/08/20 00:26:13;;;;;;;;;;;;;;;23.71;70.82;97243.63;621669;228;65586;-71
2023/08/20 00:28:41;;;;;;;;;;;;;;;23.72;70.72;97236.38;622158;228;65021;-71
2023/08/20 00:31:08;;;;;;;;;;;;;;;23.71;71.27;97246.31;622727;227;67264;-71
2023/08/20 00:33:36;;;;;;;;;;;;;;;23.70;70.35;97240.09;621675;228;67413;-71
2023/08/20 00:36:04;;;;;;;;;;;;;;;23.71;71.39;97235.58;621704;228;64683;-71
2023/08/20 00:38:32;;;;;;;;;;;;;;;23.70;71.70;97234.72;621675;228;64585;-71
2023/08/20 00:41:02;;;;;;;;;;;;;;;23.69;70.22;97238.50;621743;228;44990;-71
2023/08/20 00:43:29;;;;;;;;;;;;;;;23.71;70.89;97232.89;621665;228;64729;-73
2023/08/20 00:45:58;;;;;;;;;;;;;;;23.70;71.53;97234.72;621694;228;67087;-73
2023/08/20 00:48:26;;;;;;;;;;;;;;;23.70;70.23;97233.93;621942;227;64787;-73
2023/08/20 00:50:53;;;;;;;;;;;;;;;23.69;70.58;97233.13;622433;227;62384;-73
2023/08/20 00:53:21;;;;;;;;;;;;;;;23.69;70.90;97221.61;621640;228;64812;-73
2023/08/20 00:55:48;;;;;;;;;;;;;;;23.72;71.80;97228.33;622159;227;66828;-73
2023/08/20 00:58:16;;;;;;;;;;;;;;;23.70;71.01;97223.20;621769;228;62456;-73
2023/08/20 01:00:44;;;;;;;;;;;;;;;23.69;70.24;97233.13;622140;226;67025;-74
2023/08/20 01:03:12;;;;;;;;;;;;;;;23.69;69.99;97218.92;622717;227;64793;-73
2023/08/20 01:05:41;;;;;;;;;;;;;;;23.69;70.89;97219.72;622307;226;62523;-73
2023/08/20 01:08:10;;;;;;;;;;;;;;;23.68;70.00;97220.81;621918;227;67079;-73
2023/08/20 01:10:42;;;;;;;;;;;;;;;23.69;70.06;97214.35;621513;228;64334;-73
2023/08/20 01:13:10;;;;;;;;;;;;;;;23.68;69.04;97217.30;611720;228;62062;-73
2023/08/20 01:15:37;;;;;;;;;;;;;;;23.68;68.12;97209.25;622326;228;67221;-73
2023/08/20 01:18:05;;;;;;;;;;;;;;;23.69;69.27;97206.30;621783;228;67363;-73
2023/08/20 01:20:34;;;;;;;;;;;;;;;23.69;71.14;97211.67;621685;228;64535;-73
2023/08/20 01:23:07;;;;;;;;;;;;;;;23.69;71.06;97205.51;615620;229;68159;-73
2023/08/20 01:25:53;;;;;;;;;;;;;;;23.69;70.70;97208.19;621112;227;66850;-73
2023/08/20 01:28:28;;;;;;;;;;;;;;;23.68;70.17;97203.89;621767;227;65410;-73
2023/08/20 01:30:57;;;;;;;;;;;;;;;23.67;69.50;97211.14;621700;228;66999;-73
2023/08/20 01:33:25;;;;;;;;;;;;;;;23.67;68.24;97216.52;621743;227;65650;-73
2023/08/20 01:35:53;;;;;;;;;;;;;;;23.66;68.34;97217.61;622117;227;64850;-73
2023/08/20 01:38:20;;;;;;;;;;;;;;;23.67;68.54;97219.19;621789;228;66897;-73
2023/08/20 01:40:48;;;;;;;;;;;;;;;23.67;68.65;97215.72;622333;228;66808;-73
2023/08/20 01:43:16;;;;;;;;;;;;;;;23.67;69.57;97213.83;621971;228;64547;-73
2023/08/20 01:45:43;;;;;;;;;;;;;;;23.66;69.79;97212.23;621685;226;67435;-73
2023/08/20 01:48:11;;;;;;;;;;;;;;;23.66;70.01;97201.51;621648;228;66836;-73
2023/08/20 01:50:38;;;;;;;;;;;;;;;23.65;70.19;97202.60;621790;227;64516;-73
2023/08/20 01:53:06;;;;;;;;;;;;;;;23.66;70.50;97206.08;622040;228;67092;-73
2023/08/20 01:55:33;;;;;;;;;;;;;;;23.66;70.38;97206.08;622089;228;67769;-73
2023/08/20 01:58:01;;;;;;;;;;;;;;;23.65;70.22;97207.14;622590;227;64540;-73
2023/08/20 02:00:30;;;;;;;;;;;;;;;23.65;70.28;97205.28;622124;227;66773;-71
2023/08/20 02:02:58;;;;;;;;;;;;;;;23.65;70.28;97207.97;621809;228;67162;-71
2023/08/20 02:05:26;;;;;;;;;;;;;;;23.64;70.18;97209.03;621673;226;62398;-71
2023/08/20 02:07:54;;;;;;;;;;;;;;;23.65;70.34;97199.09;621664;228;66659;-71
2023/08/20 02:10:22;;;;;;;;;;;;;;;23.64;70.43;97192.14;621660;228;64678;-71
2023/08/20 02:12:49;;;;;;;;;;;;;;;23.64;70.46;97195.62;621702;228;64689;-71
2023/08/20 02:15:17;;;;;;;;;;;;;;;23.63;70.30;97190.55;621641;228;67217;-71
2023/08/20 02:17:45;;;;;;;;;;;;;;;23.64;70.42;97187.57;621702;228;65470;-71
2023/08/20 02:20:12;;;;;;;;;;;;;;;23.65;70.59;97193.73;622254;228;64719;-71
2023/08/20 02:22:40;;;;;;;;;;;;;;;23.62;70.40;97197.78;621725;228;66674;-71
2023/08/20 02:25:09;;;;;;;;;;;;;;;23.63;70.33;97196.71;621688;228;64034;-71
2023/08/20 02:27:36;;;;;;;;;;;;;;;23.64;70.60;97197.51;621706;228;62425;-71
2023/08/20 02:30:04;;;;;;;;;;;;;;;23.64;70.42;97202.88;621687;228;67019;-71
2023/08/20 02:32:33;;;;;;;;;;;;;;;23.64;70.42;97197.51;621812;228;67026;-73
2023/08/20 02:35:00;;;;;;;;;;;;;;;23.63;70.48;97202.08;622132;228;63553;-73
2023/08/20 02:37:28;;;;;;;;;;;;;;;23.63;70.48;97201.28;621670;228;67179;-73
2023/08/20 02:39:56;;;;;;;;;;;;;;;23.62;70.56;97205.03;621715;228;64387;-73
2023/08/20 02:42:24;;;;;;;;;;;;;;;23.64;70.48;97208.23;621667;228;64719;-71
2023/08/20 02:44:51;;;;;;;;;;;;;;;23.62;70.46;97207.72;622717;227;67045;-71
2023/08/20 02:47:19;;;;;;;;;;;;;;;23.62;70.73;97203.14;621731;228;64902;-71
2023/08/20 02:49:46;;;;;;;;;;;;;;;23.61;70.63;97206.92;621737;228;64587;-71
2023/08/20 02:52:14;;;;;;;;;;;;;;;23.62;70.42;97208.51;621969;228;66871;-72
2023/08/20 02:54:41;;;;;;;;;;;;;;;23.62;70.51;97211.19;621936;228;66788;-73
2023/08/20 02:57:09;;;;;;;;;;;;;;;23.61;70.66;97212.28;621627;228;64502;-73
2023/08/20 02:59:37;;;;;;;;;;;;;;;23.62;70.80;97213.08;621720;228;65008;-73
2023/08/20 03:02:04;;;;;;;;;;;;;;;23.61;70.84;97209.60;622250;227;66843;-73
2023/08/20 03:04:32;;;;;;;;;;;;;;;23.62;70.65;97213.08;615878;228;64845;-71
2023/08/20 03:06:59;;;;;;;;;;;;;;;23.62;70.58;97215.77;621712;228;67009;-73
2023/08/20 03:09:27;;;;;;;;;;;;;;;23.62;70.61;97215.77;621652;228;66971;-73
2023/08/20 03:11:55;;;;;;;;;;;;;;;23.61;70.79;97219.54;621889;228;62399;-74
2023/08/20 03:14:22;;;;;;;;;;;;;;;23.61;70.58;97222.22;622355;228;67069;-73
2023/08/20 03:16:50;;;;;;;;;;;;;;;23.60;70.65;97218.75;621885;228;66973;-73
2023/08/20 03:19:18;;;;;;;;;;;;;;;23.60;70.71;97221.42;621679;228;64526;-71
2023/08/20 03:21:46;;;;;;;;;;;;;;;23.61;70.90;97222.22;621679;228;67153;-71
2023/08/20 03:24:14;;;;;;;;;;;;;;;23.61;70.85;97227.59;621747;227;66786;-71
2023/08/20 03:26:41;;;;;;;;;;;;;;;23.60;70.65;97220.61;622648;227;64390;-71
2023/08/20 03:29:09;;;;;;;;;;;;;;;23.60;70.66;97224.11;621674;228;65720;-71
2023/08/20 03:31:37;;;;;;;;;;;;;;;23.60;70.77;97226.80;621708;226;67470;-71
2023/08/20 03:34:05;;;;;;;;;;;;;;;23.59;70.81;97229.74;621687;228;61943;-71
2023/08/20 03:36:33;;;;;;;;;;;;;;;23.60;70.60;97234.02;621711;228;67167;-71
2023/08/20 03:39:00;;;;;;;;;;;;;;;23.59;70.65;97227.86;621671;228;67038;-71
2023/08/20 03:41:29;;;;;;;;;;;;;;;23.59;70.78;97230.54;622063;228;62085;-71
2023/08/20 03:43:56;;;;;;;;;;;;;;;23.60;70.97;97225.97;622545;227;64712;-71
2023/08/20 03:46:24;;;;;;;;;;;;;;;23.59;71.00;97229.74;622015;227;67596;-71
2023/08/20 03:48:52;;;;;;;;;;;;;;;23.59;71.04;97230.54;621672;228;65552;-71
2023/08/20 03:51:19;;;;;;;;;;;;;;;23.59;71.07;97232.43;621714;228;64780;-71
2023/08/20 03:53:47;;;;;;;;;;;;;;;23.58;71.25;97237.00;621411;227;64917;-71
2023/08/20 03:56:14;;;;;;;;;;;;;;;23.58;71.10;97234.31;622158;228;63449;-71
2023/08/20 03:58:43;;;;;;;;;;;;;;;23.59;71.20;97227.06;621907;228;67652;-71
2023/08/20 04:01:11;;;;;;;;;;;;;;;23.58;71.09;97233.52;622439;227;66876;-71
2023/08/20 04:03:39;;;;;;;;;;;;;;;23.57;71.02;97235.41;621742;228;64499;-71
2023/08/20 04:06:07;;;;;;;;;;;;;;;23.58;71.24;97244.25;621965;228;66776;-71
2023/08/20 04:08:34;;;;;;;;;;;;;;;23.58;71.21;97244.25;621953;228;66907;-71
2023/08/20 04:11:03;;;;;;;;;;;;;;;23.56;71.33;97238.36;622173;228;64745;-71
2023/08/20 04:13:31;;;;;;;;;;;;;;;23.57;71.12;97246.14;620676;225;67438;-71
2023/08/20 04:15:58;;;;;;;;;;;;;;;23.57;71.21;97248.82;619035;227;66802;-71
2023/08/20 04:18:26;;;;;;;;;;;;;;;23.57;71.10;97248.82;622767;227;64624;-73
2023/08/20 04:20:55;;;;;;;;;;;;;;;23.56;71.26;97243.73;622348;228;65664;-73
2023/08/20 04:23:23;;;;;;;;;;;;;;;23.56;71.16;97241.84;622311;228;66989;-73
2023/08/20 04:25:50;;;;;;;;;;;;;;;23.55;70.98;97248.30;622192;225;62517;-73
2023/08/20 04:28:18;;;;;;;;;;;;;;;23.55;70.75;97242.93;615248;228;64833;-73
2023/08/20 04:30:45;;;;;;;;;;;;;;;23.56;71.00;97249.89;615312;228;66848;-74
2023/08/20 04:33:13;;;;;;;;;;;;;;;23.56;71.12;97249.89;617829;227;62499;-73
2023/08/20 04:35:42;;;;;;;;;;;;;;;23.55;70.80;97253.66;622341;227;45564;-73
2023/08/20 04:38:10;;;;;;;;;;;;;;;23.55;70.84;97247.50;623653;227;66984;-74
2023/08/20 04:40:38;;;;;;;;;;;;;;;23.55;70.95;97248.30;616125;228;61998;-73
2023/08/20 04:43:06;;;;;;;;;;;;;;;23.54;70.79;97252.05;615804;230;64816;-73
2023/08/20 04:45:33;;;;;;;;;;;;;;;23.56;71.03;97251.77;615795;230;66917;-73
2023/08/20 04:48:01;;;;;;;;;;;;;;;23.55;70.72;97250.98;615301;230;64380;-71
2023/08/20 04:50:30;;;;;;;;;;;;;;;23.55;70.83;97247.50;616766;228;64425;-71
2023/08/20 04:52:59;;;;;;;;;;;;;;;23.55;71.02;97247.50;618901;227;67053;-71
2023/08/20 04:55:28;;;;;;;;;;;;;;;23.55;70.83;97244.82;615136;230;65490;-71
2023/08/20 04:57:55;;;;;;;;;;;;;;;23.54;70.96;97249.36;615279;230;64813;-71
2023/08/20 05:00:24;;;;;;;;;;;;;;;23.54;70.89;97241.31;615247;230;68099;-71
2023/08/20 05:02:55;;;;;;;;;;;;;;;23.54;70.79;97246.67;615232;230;41781;-71
2023/08/20 05:05:22;;;;;;;;;;;;;;;23.54;70.87;97241.31;615273;230;64324;-71
2023/08/20 05:07:50;;;;;;;;;;;;;;;23.54;70.68;97235.95;616315;228;66881;-71
2023/08/20 05:10:17;;;;;;;;;;;;;;;23.54;70.78;97241.31;615473;229;64607;-71
2023/08/20 05:12:45;;;;;;;;;;;;;;;23.54;70.45;97243.20;615274;230;67035;-71
2023/08/20 05:15:13;;;;;;;;;;;;;;;23.54;70.46;97241.31;615276;230;66909;-71
2023/08/20 05:17:40;;;;;;;;;;;;;;;23.54;70.33;97245.88;615297;230;62375;-71
2023/08/20 05:20:09;;;;;;;;;;;;;;;23.55;70.39;97252.87;615788;230;66701;-71
2023/08/20 05:22:36;;;;;;;;;;;;;;;23.55;70.44;97250.98;616056;230;66871;-71
2023/08/20 05:25:04;;;;;;;;;;;;;;;23.55;70.31;97250.19;616285;230;62541;-71
2023/08/20 05:27:32;;;;;;;;;;;;;;;23.54;70.24;97249.36;618462;227;67251;-71
2023/08/20 05:29:59;;;;;;;;;;;;;;;23.55;70.15;97253.66;617847;227;69798;-71
2023/08/20 05:32:27;;;;;;;;;;;;;;;23.55;70.13;97258.23;615889;227;64380;-71
2023/08/20 05:34:54;;;;;;;;;;;;;;;23.55;70.32;97260.92;621329;227;66994;-71
2023/08/20 05:37:22;;;;;;;;;;;;;;;23.54;70.32;97260.09;623096;227;67785;-71
2023/08/20 05:39:50;;;;;;;;;;;;;;;23.54;70.24;97265.45;623037;227;64512;-71
2023/08/20 05:42:17;;;;;;;;;;;;;;;23.54;70.33;97262.77;622970;227;64444;-71
2023/08/20 05:44:47;;;;;;;;;;;;;;;23.55;70.12;97263.59;622241;227;45688;-71
2023/08/20 05:47:16;;;;;;;;;;;;;;;23.54;70.23;97262.77;622949;227;43080;-71
2023/08/20 05:49:43;;;;;;;;;;;;;;;23.54;70.28;97265.45;622744;227;66996;-71
2023/08/20 05:52:11;;;;;;;;;;;;;;;23.55;70.39;97263.59;623369;227;64426;-71
2023/08/20 05:54:39;;;;;;;;;;;;;;;23.54;70.46;97262.77;622358;228;65194;-71
2023/08/20 05:57:07;;;;;;;;;;;;;;;23.54;70.41;97267.34;623698;227;66931;-71
2023/08/20 05:59:34;;;;;;;;;;;;;;;23.54;70.55;97273.50;623959;227;64725;-71
2023/08/20 06:02:02;;;;;;;;;;;;;;;23.53;70.48;97271.91;616839;228;64523;-71
2023/08/20 06:04:30;;;;;;;;;;;;;;;23.54;70.45;97273.50;615316;229;64822;-71
2023/08/20 06:06:58;;;;;;;;;;;;;;;23.54;70.45;97276.19;609962;230;66148;-71
2023/08/20 06:09:26;;;;;;;;;;;;;;;23.54;70.37;97278.87;614901;230;63472;-71
2023/08/20 06:11:53;;;;;;;;;;;;;;;23.53;70.55;97274.59;615344;229;64389;-71
2023/08/20 06:14:21;;;;;;;;;;;;;;;23.54;70.59;97284.23;615323;230;64763;-71
2023/08/20 06:16:48;;;;;;;;;;;;;;;23.53;70.55;97288.01;615662;230;62505;-71
2023/08/20 06:19:16;;;;;;;;;;;;;;;23.53;70.50;97279.17;615954;230;64588;-71
2023/08/20 06:21:44;;;;;;;;;;;;;;;23.54;70.50;97284.23;615339;230;66556;-71
2023/08/20 06:24:11;;;;;;;;;;;;;;;23.54;70.46;97278.08;615281;230;65798;-71
2023/08/20 06:26:39;;;;;;;;;;;;;;;23.55;70.33;97287.74;615617;230;66871;-71
2023/08/20 06:29:06;;;;;;;;;;;;;;;23.54;70.29;97284.23;616085;230;66816;-71
2023/08/20 06:31:34;;;;;;;;;;;;;;;23.54;70.32;97276.19;616610;230;64587;-71
2023/08/20 06:34:02;;;;;;;;;;;;;;;23.53;70.18;97269.23;615289;230;64321;-71
2023/08/20 06:36:29;;;;;;;;;;;;;;;23.52;70.14;97264.96;616603;230;64732;-71
2023/08/20 06:38:57;;;;;;;;;;;;;;;23.54;70.09;97273.50;616453;230;63414;-71
2023/08/20 06:41:24;;;;;;;;;;;;;;;23.54;70.06;97264.66;615431;230;65099;-71
2023/08/20 06:43:52;;;;;;;;;;;;;;;23.54;70.29;97267.34;616398;230;65656;-71
2023/08/20 06:46:19;;;;;;;;;;;;;;;23.55;70.51;97275.13;615421;228;62433;-71
2023/08/20 06:48:47;;;;;;;;;;;;;;;23.54;69.89;97270.02;616669;228;64874;-71
2023/08/20 06:51:15;;;;;;;;;;;;;;;23.54;69.16;97267.34;619920;227;64846;-71
2023/08/20 06:53:43;;;;;;;;;;;;;;;23.56;69.87;97262.50;620538;227;64637;-71
2023/08/20 06:56:11;;;;;;;;;;;;;;;23.55;69.48;97269.76;619071;227;67136;-71
2023/08/20 06:58:39;;;;;;;;;;;;;;;23.57;70.59;97278.33;617620;227;67681;-71
2023/08/20 07:01:12;;;;;;;;;;;;;;;23.55;68.27;97269.76;618323;225;62619;-71
2023/08/20 07:03:43;;;;;;;;;;;;;;;23.56;68.44;97274.03;617764;228;64872;-71
2023/08/20 07:06:11;;;;;;;;;;;;;;;23.56;69.04;97270.55;617612;228;65687;-71
2023/08/20 07:08:39;;;;;;;;;;;;;;;23.57;68.60;97275.66;618990;226;64573;-71
2023/08/20 07:11:07;;;;;;;;;;;;;;;23.58;68.24;97279.13;606843;230;70658;-71
2023/08/20 07:13:34;;;;;;;;;;;;;;;23.57;68.48;97281.02;617035;229;65334;-71
2023/08/20 07:16:02;;;;;;;;;;;;;;;23.57;68.90;97274.83;615310;230;64579;-71
2023/08/20 07:18:30;;;;;;;;;;;;;;;23.57;68.77;97278.33;615281;230;67021;-71
2023/08/20 07:20:57;;;;;;;;;;;;;;;23.57;69.12;97283.70;615345;230;66759;-71
2023/08/20 07:23:25;;;;;;;;;;;;;;;23.55;67.27;97279.69;615262;228;64522;-71
2023/08/20 07:25:54;;;;;;;;;;;;;;;23.56;67.23;97279.39;615250;230;65756;-71
2023/08/20 07:28:56;;;;;;;;;;;;;;;23.58;67.18;97274.55;615844;227;67134;-71
2023/08/20 07:30:50;;;;;;;;;;;;;;;23.58;67.43;97274.55;615163;230;62508;-71
2023/08/20 07:33:18;;;;;;;;;;;;;;;23.60;67.63;97277.77;615257;230;64832;-71
2023/08/20 07:35:45;;;;;;;;;;;;;;;23.60;67.93;97269.72;615324;230;66714;-71
2023/08/20 07:38:13;;;;;;;;;;;;;;;23.61;68.12;97273.20;615266;230;62333;-71
2023/08/20 07:40:40;;;;;;;;;;;;;;;23.62;69.65;97272.90;615324;230;65845;-71
2023/08/20 07:43:08;;;;;;;;;;;;;;;23.61;69.30;97268.62;615311;230;66837;-71
2023/08/20 07:45:35;;;;;;;;;;;;;;;23.63;69.31;97265.67;615528;230;62492;-71
2023/08/20 07:48:03;;;;;;;;;;;;;;;23.62;69.18;97264.84;616837;230;64584;-71
2023/08/20 07:50:30;;;;;;;;;;;;;;;23.63;70.81;97266.47;615278;230;64790;-71
2023/08/20 07:52:58;;;;;;;;;;;;;;;23.65;72.17;97268.85;615660;230;63497;-71
2023/08/20 07:55:25;;;;;;;;;;;;;;;23.63;71.00;97269.16;615351;230;64957;-71
2023/08/20 07:57:53;;;;;;;;;;;;;;;23.61;68.01;97263.26;615674;230;64803;-71
2023/08/20 08:00:20;;;;;;;;;;;;;;;23.65;69.78;97263.48;616537;230;62505;-71
2023/08/20 08:02:48;;;;;;;;;;;;;;;23.64;68.43;97257.33;615727;230;64950;-71
2023/08/20 08:05:15;;;;;;;;;;;;;;;23.64;67.78;97264.58;615853;227;65691;-71
2023/08/20 08:07:43;;;;;;;;;;;;;;;23.66;67.76;97262.42;615957;230;63388;-71
2023/08/20 08:10:10;;;;;;;;;;;;;;;23.66;67.99;97265.90;615306;230;67032;-71
2023/08/20 08:12:38;;;;;;;;;;;;;;;23.66;67.76;97265.90;615569;230;66940;-71
2023/08/20 08:15:06;;;;;;;;;;;;;;;23.67;67.86;97266.70;616054;230;65299;-71
2023/08/20 08:17:33;;;;;;;;;;;;;;;23.68;68.90;97269.11;616744;228;65759;-71
2023/08/20 08:20:01;;;;;;;;;;;;;;;23.68;69.48;97263.74;616097;230;64751;-71
2023/08/20 08:22:28;;;;;;;;;;;;;;;23.67;70.41;97262.13;615253;230;65473;-71
2023/08/20 08:24:56;;;;;;;;;;;;;;;23.67;70.06;97264.81;615304;230;67057;-71
2023/08/20 08:27:23;;;;;;;;;;;;;;;23.67;69.31;97267.49;615281;228;66932;-71
2023/08/20 08:29:51;;;;;;;;;;;;;;;23.68;69.93;97269.11;616358;230;64537;-71
2023/08/20 08:32:19;;;;;;;;;;;;;;;23.68;69.56;97274.48;615461;230;67015;-70
2023/08/20 08:34:46;;;;;;;;;;;;;;;23.68;69.72;97271.80;616107;230;64523;-70
2023/08/20 08:37:15;;;;;;;;;;;;;;;23.69;70.44;97269.91;615426;230;63489;-71
2023/08/20 08:39:43;;;;;;;;;;;;;;;23.69;70.33;97267.22;615297;230;67996;-71
2023/08/20 08:42:11;;;;;;;;;;;;;;;23.69;70.78;97270.70;615249;230;67188;-70
2023/08/20 08:44:39;;;;;;;;;;;;;;;23.70;70.38;97280.34;615289;230;63302;-71
2023/08/20 08:47:06;;;;;;;;;;;;;;;23.68;69.82;97270.97;616547;229;64840;-71
2023/08/20 08:49:35;;;;;;;;;;;;;;;23.69;69.44;97272.59;616316;230;64778;-71
2023/08/20 08:52:04;;;;;;;;;;;;;;;23.69;70.40;97272.59;616514;230;62438;-71
2023/08/20 08:54:33;;;;;;;;;;;;;;;23.70;70.59;97274.17;615291;230;65071;-71
2023/08/20 08:57:01;;;;;;;;;;;;;;;23.70;70.54;97279.55;616492;230;65082;-71
2023/08/20 08:59:28;;;;;;;;;;;;;;;23.69;68.84;97276.06;616008;230;63443;-71
2023/08/20 09:01:56;;;;;;;;;;;;;;;23.71;69.43;97267.78;616447;230;65470;-71
2023/08/20 09:04:24;;;;;;;;;;;;;;;23.70;69.34;97272.29;616579;230;66842;-71
2023/08/20 09:06:52;;;;;;;;;;;;;;;23.71;70.37;97273.14;615271;229;62543;-71
2023/08/20 09:09:20;;;;;;;;;;;;;;;23.70;70.29;97269.61;615250;230;65298;-71
2023/08/20 09:11:48;;;;;;;;;;;;;;;23.72;69.74;97263.20;615590;230;64827;-71
2023/08/20 09:14:22;;;;;;;;;;;;;;;23.72;69.28;97269.37;616214;228;62382;-71
2023/08/20 09:16:58;;;;;;;;;;;;;;;23.72;69.25;97268.57;615296;230;65014;-71
2023/08/20 09:19:27;;;;;;;;;;;;;;;23.72;69.74;97265.89;615284;230;67094;-72
2023/08/20 09:21:55;;;;;;;;;;;;;;;23.72;69.49;97268.57;615273;230;65586;-72
2023/08/20 09:24:36;;;;;;;;;;;;;;;23.74;69.97;97269.89;615290;230;67940;-72
2023/08/20 09:27:05;;;;;;;;;;;;;;;23.72;69.51;97258.63;615347;227;64810;-71
2023/08/20 09:29:33;;;;;;;;;;;;;;;23.72;69.58;97266.69;615301;230;64323;-71
2023/08/20 09:32:02;;;;;;;;;;;;;;;23.72;69.50;97260.52;615742;230;67003;-71
2023/08/20 09:34:31;;;;;;;;;;;;;;;23.72;69.40;97264.00;615847;230;64988;-71
2023/08/20 09:36:59;;;;;;;;;;;;;;;23.73;69.55;97264.80;615488;227;62470;-71
2023/08/20 09:39:26;;;;;;;;;;;;;;;23.73;69.18;97262.11;615284;230;64857;-71
2023/08/20 09:41:54;;;;;;;;;;;;;;;23.73;69.35;97267.48;615325;230;66694;-71
2023/08/20 09:44:22;;;;;;;;;;;;;;;23.73;69.27;97256.74;615292;230;64481;-71
2023/08/20 09:46:50;;;;;;;;;;;;;;;23.74;69.49;97261.05;616155;230;65781;-71
2023/08/20 09:49:18;;;;;;;;;;;;;;;23.73;69.45;97252.17;615483;230;64699;-71
2023/08/20 09:51:47;;;;;;;;;;;;;;;23.73;69.42;97244.13;616274;230;64552;-70
2023/08/20 09:54:16;;;;;;;;;;;;;;;23.74;69.65;97248.42;616081;226;67057;-71
2023/08/20 09:56:44;;;;;;;;;;;;;;;23.73;69.40;97249.49;616325;226;66059;-71
2023/08/20 09:59:12;;;;;;;;;;;;;;;23.74;69.74;97240.38;616320;230;64595;-71
2023/08/20 10:01:40;;;;;;;;;;;;;;;23.75;69.23;97246.53;616064;230;64825;-71
2023/08/20 10:04:08;;;;;;;;;;;;;;;23.74;69.66;97239.58;615553;230;65779;-71
2023/08/20 10:06:36;;;;;;;;;;;;;;;23.75;69.47;97249.22;615304;230;63729;-71
2023/08/20 10:09:04;;;;;;;;;;;;;;;23.74;69.68;97251.11;616508;228;67204;-72
2023/08/20 10:11:32;;;;;;;;;;;;;;;23.76;70.57;97240.08;615367;230;66949;-71
2023/08/20 10:13:59;;;;;;;;;;;;;;;23.75;70.61;97235.80;615354;230;64455;-71
2023/08/20 10:16:28;;;;;;;;;;;;;;;23.73;70.23;97241.44;615446;230;67462;-71
2023/08/20 10:18:59;;;;;;;;;;;;;;;23.74;69.54;97239.58;616485;230;65475;-71
2023/08/20 10:21:27;;;;;;;;;;;;;;;23.74;70.29;97240.38;616528;229;62503;-71
2023/08/20 10:23:55;;;;;;;;;;;;;;;23.75;70.50;97241.17;615334;230;67136;-71
2023/08/20 10:26:24;;;;;;;;;;;;;;;23.75;71.08;97236.59;615437;230;67647;-71
2023/08/20 10:28:51;;;;;;;;;;;;;;;23.75;69.29;97246.53;616867;230;64664;-71
2023/08/20 10:31:19;;;;;;;;;;;;;;;23.74;70.36;97229.64;615430;230;67687;-71
2023/08/20 10:33:56;;;;;;;;;;;;;;;23.74;71.01;97234.22;615336;230;66760;-71
2023/08/20 10:36:31;;;;;;;;;;;;;;;23.75;70.96;97230.44;615287;230;65798;-72
2023/08/20 10:39:00;;;;;;;;;;;;;;;23.75;70.78;97241.17;615855;230;66783;-72
2023/08/20 10:41:28;;;;;;;;;;;;;;;23.74;69.93;97239.58;615473;227;66915;-72
2023/08/20 10:43:59;;;;;;;;;;;;;;;23.75;70.32;97230.44;616432;227;62515;-72
2023/08/20 10:46:36;;;;;;;;;;;;;;;23.75;70.27;97231.23;615399;228;65831;-72
2023/08/20 10:48:59;;;;;;;;;;;;;;;23.75;70.27;97227.75;616437;229;65134;-72
2023/08/20 10:51:31;;;;;;;;;;;;;;;23.75;70.41;97219.70;615335;230;65728;-72
2023/08/20 10:54:05;;;;;;;;;;;;;;;23.75;69.93;97222.39;615256;227;64882;-72
2023/08/20 10:56:40;;;;;;;;;;;;;;;23.75;70.75;97219.70;615298;230;66836;-72
2023/08/20 10:59:10;;;;;;;;;;;;;;;23.75;69.84;97220.50;615306;230;64692;-72
2023/08/20 11:01:37;;;;;;;;;;;;;;;23.75;70.61;97217.81;615408;227;64920;-72
2023/08/20 11:04:07;;;;;;;;;;;;;;;23.76;70.21;97218.61;615795;230;64396;-72
2023/08/20 11:06:34;;;;;;;;;;;;;;;23.75;69.68;97215.12;616591;230;65001;-72
2023/08/20 11:09:09;;;;;;;;;;;;;;;23.75;69.48;97214.34;615617;230;67013;-71
2023/08/20 11:11:36;;;;;;;;;;;;;;;23.76;70.03;97208.67;619108;225;66037;-71
2023/08/20 11:14:06;;;;;;;;;;;;;;;23.76;70.54;97205.98;616745;228;62400;-71
2023/08/20 11:16:36;;;;;;;;;;;;;;;23.75;70.27;97209.77;616066;227;67054;-71
2023/08/20 11:19:16;;;;;;;;;;;;;;;23.76;70.70;97199.83;615925;230;67051;-71
2023/08/20 11:21:44;;;;;;;;;;;;;;;23.76;70.07;97199.83;595301;235;64396;-74
2023/08/20 11:24:12;;;;;;;;;;;;;;;23.76;69.77;97203.30;593114;238;65021;-74
2023/08/20 11:26:40;;;;;;;;;;;;;;;23.77;70.05;97193.39;594339;238;64687;-74
2023/08/20 11:29:08;;;;;;;;;;;;;;;23.76;69.83;97189.88;594137;238;64632;-74
2023/08/20 11:31:37;;;;;;;;;;;;;;;23.76;70.13;97181.83;587733;240;66798;-73
2023/08/20 11:34:05;;;;;;;;;;;;;;;23.77;69.88;97185.34;593913;238;67019;-75
2023/08/20 11:36:33;;;;;;;;;;;;;;;23.77;69.95;97179.97;588342;240;64711;-75
2023/08/20 11:39:00;;;;;;;;;;;;;;;23.78;65.85;97170.83;594274;238;68337;-74
2023/08/20 11:41:28;;;;;;;;;;;;;;;23.80;67.05;97177.52;594546;238;64808;-75
2023/08/20 11:43:56;;;;;;;;;;;;;;;23.80;68.39;97172.14;594505;238;64588;-74
2023/08/20 11:46:24;;;;;;;;;;;;;;;23.79;68.50;97173.23;595801;237;65827;-75
2023/08/20 11:49:07;;;;;;;;;;;;;;;23.79;68.59;97173.23;596349;238;65759;-75
2023/08/20 11:51:41;;;;;;;;;;;;;;;23.79;68.62;97167.88;595438;238;64798;-74
2023/08/20 11:54:13;;;;;;;;;;;;;;;23.79;68.54;97167.88;585362;241;67151;-74
2023/08/20 11:56:42;;;;;;;;;;;;;;;23.79;68.35;97172.42;595547;237;66865;-74
2023/08/20 11:59:11;;;;;;;;;;;;;;;23.79;68.36;97167.05;596645;237;62470;-75
2023/08/20 12:01:39;;;;;;;;;;;;;;;23.79;68.40;97167.05;595459;238;67081;-71
2023/08/20 12:04:08;;;;;;;;;;;;;;;23.79;68.40;97162.51;592769;238;66914;-71
2023/08/20 12:06:38;;;;;;;;;;;;;;;23.80;68.18;97158.73;594293;238;64772;-71
2023/08/20 12:09:21;;;;;;;;;;;;;;;23.80;68.20;97147.20;593441;238;67189;-71
2023/08/20 12:11:51;;;;;;;;;;;;;;;23.79;68.12;97149.09;592383;237;64721;-71
2023/08/20 12:14:19;;;;;;;;;;;;;;;23.80;68.18;97152.56;586690;239;62498;-71
2023/08/20 12:16:47;;;;;;;;;;;;;;;23.80;68.14;97147.99;592969;237;67072;-71
2023/08/20 12:19:15;;;;;;;;;;;;;;;23.80;68.36;97153.36;593034;238;66701;-70
2023/08/20 12:21:43;;;;;;;;;;;;;;;23.81;68.24;97154.16;594232;238;64407;-70
2023/08/20 12:24:11;;;;;;;;;;;;;;;23.79;68.33;97151.77;593635;238;64940;-70
2023/08/20 12:26:39;;;;;;;;;;;;;;;23.81;68.22;97146.10;595410;236;65166;-70
2023/08/20 12:29:07;;;;;;;;;;;;;;;23.80;68.08;97139.94;594422;237;64634;-70
2023/08/20 12:31:35;;;;;;;;;;;;;;;23.81;68.04;97143.42;594166;238;67000;-74
2023/08/20 12:34:03;;;;;;;;;;;;;;;23.82;67.78;97150.41;594510;238;64843;-75
2023/08/20 12:36:31;;;;;;;;;;;;;;;23.82;69.18;97143.14;595379;237;64596;-74
2023/08/20 12:38:58;;;;;;;;;;;;;;;23.81;68.97;97143.42;586040;240;67079;-75
2023/08/20 12:41:26;;;;;;;;;;;;;;;23.81;68.39;97132.69;595757;237;66882;-75
2023/08/20 12:43:53;;;;;;;;;;;;;;;23.80;68.29;97123.84;593741;238;62660;-75
2023/08/20 12:46:21;;;;;;;;;;;;;;;23.81;68.26;97132.69;593086;238;67665;-75
2023/08/20 12:48:48;;;;;;;;;;;;;;;23.81;68.23;97127.31;596179;235;66913;-75
2023/08/20 12:51:17;;;;;;;;;;;;;;;23.81;68.31;97138.84;596777;235;65795;-75
2023/08/20 12:53:45;;;;;;;;;;;;;;;23.81;68.30;97128.11;596130;235;65189;-74